Time;durP1;ratioP1;P1;durP2;ratioP2;P2;SDS_P1;SDS_P2;PMS_P1;PMS_P2;Temp;Humidity;BMP_temperature;BMP_pressure;BME280_temperature;BME280_humidity;BME280_pressure;Samples;Min_cycle;Max_cycle;Signal;HPM_P1;HPM_P2
2022/06/22 00:00:04;;;;;;;4.95;3.00;;;;;;;;;;516794;28;1456;-86
2022/06/22 00:00:21;;;;;;;4.28;3.00;;;;;;;;;;518276;28;1468;-86
2022/06/22 00:00:40;;;;;;;4.80;3.05;;;;;;;;;;519780;28;1444;-85
2022/06/22 00:01:12;;;;;;;3.85;2.83;;;;;;;;;;520581;28;1531;-86
2022/06/22 00:01:42;;;;;;;6.75;3.10;;;;;;;;;;522662;28;1386;-86
2022/06/22 00:02:13;;;;;;;4.57;3.10;;;;;;;;;;524178;28;1454;-86
2022/06/22 00:02:34;;;;;;;4.65;3.08;;;;;;;;;;519250;28;1467;-86
2022/06/22 00:02:52;;;;;;;5.05;3.00;;;;;;;;;;523391;28;1366;-86
2022/06/22 00:03:09;;;;;;;3.92;3.03;;;;;;;;;;521043;28;1437;-86
2022/06/22 00:03:25;;;;;;;3.58;2.90;;;;;;;;;;521374;28;1454;-86
2022/06/22 00:03:42;;;;;;;4.78;2.80;;;;;;;;;;519668;28;1479;-86
2022/06/22 00:04:00;;;;;;;4.13;2.72;;;;;;;;;;520450;28;1420;-86
2022/06/22 00:04:20;;;;;;;3.60;2.83;;;;;;;;;;517657;28;1495;-86
2022/06/22 00:04:55;;;;;;;4.20;2.80;;;;;;;;;;517648;28;1431;-86
2022/06/22 00:05:17;;;;;;;4.35;2.90;;;;;;;;;;519927;28;1455;-86
2022/06/22 00:05:43;;;;;;;3.42;2.90;;;;;;;;;;518621;28;1663;-86
2022/06/22 00:05:58;;;;;;;4.32;2.60;;;;;;;;;;521970;28;1729;-86
2022/06/22 00:06:36;;;;;;;4.47;2.70;;;;;;;;;;519513;28;1494;-86
2022/06/22 00:07:01;;;;;;;4.20;2.90;;;;;;;;;;521560;28;1518;-86
2022/06/22 00:07:22;;;;;;;5.43;2.78;;;;;;;;;;521688;28;1505;-86
2022/06/22 00:07:47;;;;;;;4.28;2.78;;;;;;;;;;521292;28;1675;-86
2022/06/22 00:08:06;;;;;;;4.27;2.73;;;;;;;;;;521009;28;1518;-86
2022/06/22 00:08:27;;;;;;;4.93;2.97;;;;;;;;;;519602;28;1395;-85
2022/06/22 00:08:46;;;;;;;3.55;2.85;;;;;;;;;;518273;28;1431;-86
2022/06/22 00:09:03;;;;;;;3.20;2.80;;;;;;;;;;518814;28;1724;-86
2022/06/22 00:09:39;;;;;;;3.13;2.63;;;;;;;;;;520791;28;1442;-85
2022/06/22 00:10:15;;;;;;;3.38;2.83;;;;;;;;;;522431;28;1454;-86
2022/06/22 00:10:32;;;;;;;3.88;2.72;;;;;;;;;;524184;28;1565;-86
2022/06/22 00:11:10;;;;;;;3.75;2.70;;;;;;;;;;525701;28;1658;-86
2022/06/22 00:11:26;;;;;;;4.68;3.03;;;;;;;;;;522890;28;1552;-87
2022/06/22 00:11:44;;;;;;;4.43;2.90;;;;;;;;;;523448;28;1457;-86
2022/06/22 00:12:00;;;;;;;4.55;2.90;;;;;;;;;;521527;28;1410;-86
2022/06/22 00:12:27;;;;;;;4.68;2.90;;;;;;;;;;520967;28;1530;-85
2022/06/22 00:12:48;;;;;;;4.88;2.80;;;;;;;;;;520048;28;1696;-85
2022/06/22 00:13:13;;;;;;;4.55;2.80;;;;;;;;;;521648;28;1519;-85
2022/06/22 00:13:30;;;;;;;3.80;2.90;;;;;;;;;;521437;28;1477;-85
2022/06/22 00:13:52;;;;;;;3.50;2.70;;;;;;;;;;519892;28;1541;-86
2022/06/22 00:14:17;;;;;;;4.13;2.80;;;;;;;;;;521909;28;1807;-86
2022/06/22 00:14:42;;;;;;;4.97;3.03;;;;;;;;;;521919;28;1461;-85
2022/06/22 00:15:00;;;;;;;4.63;3.10;;;;;;;;;;520465;28;1459;-85
2022/06/22 00:15:31;;;;;;;4.50;3.03;;;;;;;;;;519453;28;1436;-85
2022/06/22 00:15:50;;;;;;;5.50;2.90;;;;;;;;;;520566;28;1459;-85
2022/06/22 00:16:17;;;;;;;7.50;3.03;;;;;;;;;;522028;28;1451;-85
2022/06/22 00:16:36;;;;;;;3.95;3.00;;;;;;;;;;519895;28;1396;-85
2022/06/22 00:16:54;;;;;;;4.15;2.63;;;;;;;;;;517809;28;1557;-86
2022/06/22 00:17:18;;;;;;;4.07;2.95;;;;;;;;;;517409;28;1439;-85
2022/06/22 00:17:37;;;;;;;3.72;2.92;;;;;;;;;;519845;28;1530;-85
2022/06/22 00:17:53;;;;;;;3.85;2.70;;;;;;;;;;517465;28;1439;-86
2022/06/22 00:18:20;;;;;;;3.97;2.80;;;;;;;;;;518136;28;1431;-85
2022/06/22 00:18:45;;;;;;;5.53;2.90;;;;;;;;;;517337;28;1432;-85
2022/06/22 00:19:12;;;;;;;4.00;3.00;;;;;;;;;;517169;28;1420;-85
2022/06/22 00:19:35;;;;;;;4.07;2.78;;;;;;;;;;517653;28;1585;-85
2022/06/22 00:19:58;;;;;;;5.00;3.00;;;;;;;;;;518463;28;1459;-86
2022/06/22 00:20:26;;;;;;;4.75;3.00;;;;;;;;;;520193;28;1435;-85
2022/06/22 00:20:49;;;;;;;4.20;2.95;;;;;;;;;;519552;28;1537;-86
2022/06/22 00:21:30;;;;;;;4.60;2.85;;;;;;;;;;521607;28;1505;-85
2022/06/22 00:21:48;;;;;;;6.00;2.72;;;;;;;;;;517784;28;1939;-85
2022/06/22 00:22:04;;;;;;;4.38;2.80;;;;;;;;;;518914;28;1782;-85
2022/06/22 00:22:24;;;;;;;4.60;3.00;;;;;;;;;;517241;28;1600;-86
2022/06/22 00:23:16;;;;;;;4.43;3.20;;;;;;;;;;517066;28;1518;-86
2022/06/22 00:23:38;;;;;;;6.38;2.95;;;;;;;;;;515790;28;1447;-85
2022/06/22 00:23:57;;;;;;;3.92;2.90;;;;;;;;;;518596;28;1404;-85
2022/06/22 00:24:22;;;;;;;4.32;2.80;;;;;;;;;;518362;28;1492;-85
2022/06/22 00:24:41;;;;;;;4.30;2.80;;;;;;;;;;521535;28;1538;-85
2022/06/22 00:25:10;;;;;;;4.65;2.88;;;;;;;;;;522580;28;1785;-85
2022/06/22 00:25:31;;;;;;;5.80;3.03;;;;;;;;;;521429;28;1479;-86
2022/06/22 00:25:46;;;;;;;4.93;2.70;;;;;;;;;;518199;28;1683;-86
2022/06/22 00:26:15;;;;;;;3.73;2.60;;;;;;;;;;518902;28;1383;-86
2022/06/22 00:26:34;;;;;;;3.88;2.85;;;;;;;;;;522683;28;1498;-86
2022/06/22 00:26:59;;;;;;;3.35;2.90;;;;;;;;;;523517;28;1620;-85
2022/06/22 00:27:18;;;;;;;4.50;2.90;;;;;;;;;;521837;28;1501;-85
2022/06/22 00:27:37;;;;;;;4.55;3.05;;;;;;;;;;521996;28;1401;-86
2022/06/22 00:27:53;;;;;;;4.63;2.90;;;;;;;;;;524495;28;1255;-86
2022/06/22 00:28:37;;;;;;;3.83;2.90;;;;;;;;;;523949;28;1736;-86
2022/06/22 00:29:05;;;;;;;4.90;2.85;;;;;;;;;;521708;28;1653;-86
2022/06/22 00:29:34;;;;;;;3.40;2.67;;;;;;;;;;521114;28;1470;-86
2022/06/22 00:30:07;;;;;;;5.05;3.03;;;;;;;;;;522031;28;1514;-86
2022/06/22 00:30:30;;;;;;;5.18;3.00;;;;;;;;;;521351;28;1569;-86
2022/06/22 00:30:46;;;;;;;3.83;2.80;;;;;;;;;;522094;28;1504;-86
2022/06/22 00:31:20;;;;;;;3.67;2.80;;;;;;;;;;523999;28;1751;-86
2022/06/22 00:31:56;;;;;;;3.40;2.80;;;;;;;;;;521340;28;1629;-86
2022/06/22 00:32:38;;;;;;;4.40;2.80;;;;;;;;;;521881;28;1486;-86
2022/06/22 00:33:22;;;;;;;4.60;2.90;;;;;;;;;;517885;28;1720;-86
2022/06/22 00:33:38;;;;;;;5.25;2.90;;;;;;;;;;521368;28;1462;-86
2022/06/22 00:34:05;;;;;;;5.10;3.03;;;;;;;;;;521207;28;1478;-86
2022/06/22 00:34:21;;;;;;;4.32;3.00;;;;;;;;;;521275;28;1621;-86
2022/06/22 00:34:36;;;;;;;4.70;3.03;;;;;;;;;;519986;28;1493;-86
2022/06/22 00:34:52;;;;;;;5.23;3.20;;;;;;;;;;521535;28;1447;-86
2022/06/22 00:35:47;;;;;;;5.10;3.20;;;;;;;;;;521731;28;1667;-86
2022/06/22 00:36:18;;;;;;;4.03;3.00;;;;;;;;;;517175;28;1532;-86
2022/06/22 00:36:39;;;;;;;3.72;3.00;;;;;;;;;;517518;28;1611;-86
2022/06/22 00:37:12;;;;;;;4.18;2.90;;;;;;;;;;517629;28;1551;-86
2022/06/22 00:37:30;;;;;;;4.18;3.10;;;;;;;;;;517580;28;2063;-86
2022/06/22 00:37:46;;;;;;;3.72;3.10;;;;;;;;;;517265;28;1520;-86
2022/06/22 00:38:01;;;;;;;3.42;2.90;;;;;;;;;;516092;28;1514;-86
2022/06/22 00:38:29;;;;;;;3.77;2.87;;;;;;;;;;516055;28;1415;-86
2022/06/22 00:38:44;;;;;;;3.90;2.97;;;;;;;;;;516858;28;1644;-86
2022/06/22 00:39:18;;;;;;;5.10;3.03;;;;;;;;;;519772;28;1589;-86
2022/06/22 00:39:41;;;;;;;3.80;2.90;;;;;;;;;;519055;28;1531;-86
2022/06/22 00:40:00;;;;;;;4.30;2.90;;;;;;;;;;518695;28;1463;-86
2022/06/22 00:40:16;;;;;;;5.70;3.00;;;;;;;;;;517424;28;1536;-87
2022/06/22 00:40:36;;;;;;;5.22;2.97;;;;;;;;;;517988;28;1449;-85
2022/06/22 00:40:55;;;;;;;3.92;2.90;;;;;;;;;;521462;28;1466;-86
2022/06/22 00:41:22;;;;;;;3.47;2.80;;;;;;;;;;520262;28;1510;-86
2022/06/22 00:41:37;;;;;;;3.45;2.95;;;;;;;;;;520193;28;1724;-85
2022/06/22 00:42:21;;;;;;;4.10;3.07;;;;;;;;;;521204;28;1561;-86
2022/06/22 00:42:43;;;;;;;4.70;3.08;;;;;;;;;;522061;28;1446;-86
2022/06/22 00:42:59;;;;;;;4.63;2.90;;;;;;;;;;519890;28;1661;-86
2022/06/22 00:43:16;;;;;;;4.93;3.00;;;;;;;;;;522141;28;1446;-86
2022/06/22 00:43:35;;;;;;;6.18;3.30;;;;;;;;;;519446;28;1451;-86
2022/06/22 00:43:54;;;;;;;5.07;3.17;;;;;;;;;;519883;28;1436;-86
2022/06/22 00:44:12;;;;;;;4.07;2.90;;;;;;;;;;519997;28;1490;-86
2022/06/22 00:44:31;;;;;;;4.00;3.03;;;;;;;;;;521018;28;1393;-86
2022/06/22 00:45:05;;;;;;;3.75;3.00;;;;;;;;;;522457;28;1438;-86
2022/06/22 00:45:27;;;;;;;4.68;3.00;;;;;;;;;;522602;28;1776;-86
2022/06/22 00:45:43;;;;;;;5.47;3.20;;;;;;;;;;521906;28;1425;-86
2022/06/22 00:46:00;;;;;;;6.03;3.20;;;;;;;;;;522151;28;1482;-86
2022/06/22 00:46:19;;;;;;;5.43;3.13;;;;;;;;;;519653;28;1592;-86
2022/06/22 00:46:41;;;;;;;4.25;3.00;;;;;;;;;;520028;28;1625;-86
2022/06/22 00:47:05;;;;;;;3.95;2.90;;;;;;;;;;520303;28;1555;-86
2022/06/22 00:47:36;;;;;;;5.63;3.10;;;;;;;;;;520455;28;1464;-86
2022/06/22 00:47:56;;;;;;;4.90;3.03;;;;;;;;;;518533;28;1633;-86
2022/06/22 00:48:22;;;;;;;4.65;3.03;;;;;;;;;;519191;28;1494;-86
2022/06/22 00:48:38;;;;;;;6.13;3.17;;;;;;;;;;521185;28;1543;-86
2022/06/22 00:48:55;;;;;;;6.07;3.17;;;;;;;;;;518951;28;1655;-87
2022/06/22 00:49:18;;;;;;;6.30;3.33;;;;;;;;;;519038;28;1405;-86
2022/06/22 00:49:35;;;;;;;4.88;3.10;;;;;;;;;;518528;28;1738;-86
2022/06/22 00:49:55;;;;;;;3.90;2.95;;;;;;;;;;517050;28;1586;-86
2022/06/22 00:50:19;;;;;;;5.40;3.05;;;;;;;;;;517744;28;1516;-86
2022/06/22 00:50:43;;;;;;;5.10;3.05;;;;;;;;;;517194;28;1495;-86
2022/06/22 00:51:00;;;;;;;5.25;2.90;;;;;;;;;;517355;28;1617;-86
2022/06/22 00:51:26;;;;;;;5.20;2.97;;;;;;;;;;517858;28;1414;-86
2022/06/22 00:51:42;;;;;;;4.88;3.20;;;;;;;;;;519607;28;1587;-86
2022/06/22 00:52:00;;;;;;;3.35;3.00;;;;;;;;;;519940;28;1557;-86
2022/06/22 00:52:42;;;;;;;3.78;3.05;;;;;;;;;;522553;28;1509;-86
2022/06/22 00:53:02;;;;;;;5.18;3.13;;;;;;;;;;523195;28;1489;-86
2022/06/22 00:54:04;;;;;;;4.45;3.00;;;;;;;;;;526465;28;1484;-86
2022/06/22 00:54:25;;;;;;;5.97;3.03;;;;;;;;;;520842;28;1418;-86
2022/06/22 00:54:45;;;;;;;4.15;3.13;;;;;;;;;;522349;28;1450;-86
2022/06/22 00:55:01;;;;;;;4.20;3.15;;;;;;;;;;521956;28;1543;-86
2022/06/22 00:55:37;;;;;;;5.30;3.33;;;;;;;;;;520487;28;1435;-86
2022/06/22 00:56:08;;;;;;;4.20;3.10;;;;;;;;;;518017;28;1428;-86
2022/06/22 00:56:42;;;;;;;5.50;3.28;;;;;;;;;;518075;28;1392;-86
2022/06/22 00:57:09;;;;;;;3.85;3.00;;;;;;;;;;519503;28;1464;-86
2022/06/22 00:57:35;;;;;;;4.95;3.10;;;;;;;;;;520582;28;1906;-86
2022/06/22 00:58:17;;;;;;;5.13;3.10;;;;;;;;;;519219;28;1539;-85
2022/06/22 00:58:35;;;;;;;4.15;2.95;;;;;;;;;;520072;28;1452;-86
2022/06/22 00:59:03;;;;;;;4.53;2.90;;;;;;;;;;519434;28;1442;-86
2022/06/22 00:59:34;;;;;;;4.60;3.10;;;;;;;;;;522821;28;1430;-86
2022/06/22 01:00:14;;;;;;;3.92;2.97;;;;;;;;;;521805;28;1419;-86
2022/06/22 01:00:33;;;;;;;4.03;2.95;;;;;;;;;;517160;28;1702;-86
2022/06/22 01:01:02;;;;;;;6.45;3.15;;;;;;;;;;517786;28;1379;-86
2022/06/22 01:01:33;;;;;;;3.80;3.10;;;;;;;;;;518464;28;1580;-86
2022/06/22 01:01:57;;;;;;;4.95;3.00;;;;;;;;;;518787;28;1581;-86
2022/06/22 01:02:50;;;;;;;4.28;3.13;;;;;;;;;;519742;28;1530;-86
2022/06/22 01:03:19;;;;;;;4.03;3.13;;;;;;;;;;522098;28;1429;-86
2022/06/22 01:04:06;;;;;;;4.22;3.00;;;;;;;;;;522070;28;1451;-86
2022/06/22 01:04:27;;;;;;;4.25;3.15;;;;;;;;;;525829;28;1477;-86
2022/06/22 01:04:53;;;;;;;5.53;3.20;;;;;;;;;;523281;28;1517;-86
2022/06/22 01:05:18;;;;;;;5.05;3.20;;;;;;;;;;523422;28;1423;-86
2022/06/22 01:05:55;;;;;;;4.43;3.15;;;;;;;;;;521740;28;1276;-85
2022/06/22 01:06:43;;;;;;;4.55;3.10;;;;;;;;;;521776;28;1450;-86
2022/06/22 01:07:14;;;;;;;4.28;3.10;;;;;;;;;;522126;28;1399;-86
2022/06/22 01:07:36;;;;;;;3.80;3.22;;;;;;;;;;520717;28;1593;-86
2022/06/22 01:08:07;;;;;;;4.60;3.08;;;;;;;;;;519490;28;1689;-86
2022/06/22 01:08:45;;;;;;;3.72;3.10;;;;;;;;;;519332;28;1518;-86
2022/06/22 01:09:11;;;;;;;4.20;3.10;;;;;;;;;;519655;28;1560;-86
2022/06/22 01:09:41;;;;;;;4.72;3.00;;;;;;;;;;519238;28;1369;-86
2022/06/22 01:10:06;;;;;;;4.43;3.20;;;;;;;;;;519460;28;1668;-86
2022/06/22 01:10:32;;;;;;;5.32;3.03;;;;;;;;;;521131;28;1455;-86
2022/06/22 01:11:02;;;;;;;4.75;3.20;;;;;;;;;;520338;28;1367;-86
2022/06/22 01:12:25;;;;;;;5.28;3.08;;;;;;;;;;523434;28;1580;-86
2022/06/22 01:12:48;;;;;;;5.55;3.45;;;;;;;;;;523778;28;1417;-86
2022/06/22 01:13:24;;;;;;;4.30;3.20;;;;;;;;;;526185;28;1391;-86
2022/06/22 01:13:47;;;;;;;5.25;3.42;;;;;;;;;;523226;28;1426;-86
2022/06/22 01:14:11;;;;;;;5.00;3.40;;;;;;;;;;521749;28;1487;-86
2022/06/22 01:14:50;;;;;;;6.03;3.30;;;;;;;;;;521617;28;1419;-86
2022/06/22 01:15:28;;;;;;;4.22;3.20;;;;;;;;;;521022;28;1602;-86
2022/06/22 01:15:57;;;;;;;3.88;3.30;;;;;;;;;;523485;28;1748;-86
2022/06/22 01:16:27;;;;;;;4.40;3.10;;;;;;;;;;523469;28;1461;-85
2022/06/22 01:16:46;;;;;;;3.40;2.90;;;;;;;;;;523549;28;1414;-86
2022/06/22 01:17:07;;;;;;;4.15;3.13;;;;;;;;;;521655;28;1516;-86
2022/06/22 01:17:47;;;;;;;4.78;3.20;;;;;;;;;;519752;28;1914;-86
2022/06/22 01:18:10;;;;;;;4.97;3.05;;;;;;;;;;520249;28;1494;-86
2022/06/22 01:18:36;;;;;;;3.60;3.10;;;;;;;;;;519673;28;1431;-86
2022/06/22 01:19:20;;;;;;;4.57;3.30;;;;;;;;;;519650;28;1545;-86
2022/06/22 01:19:48;;;;;;;6.05;3.28;;;;;;;;;;521362;28;1435;-85
2022/06/22 01:20:14;;;;;;;4.13;3.15;;;;;;;;;;522306;28;1773;-86
2022/06/22 01:20:40;;;;;;;4.90;3.10;;;;;;;;;;520572;28;1411;-86
2022/06/22 01:21:04;;;;;;;5.53;3.03;;;;;;;;;;523031;28;1398;-87
2022/06/22 01:21:23;;;;;;;4.30;3.00;;;;;;;;;;519765;28;1427;-86
2022/06/22 01:21:43;;;;;;;5.88;3.10;;;;;;;;;;519418;28;1466;-86
2022/06/22 01:22:30;;;;;;;5.63;3.30;;;;;;;;;;518973;28;1966;-86
2022/06/22 01:22:49;;;;;;;7.32;3.50;;;;;;;;;;521970;28;1428;-86
2022/06/22 01:23:37;;;;;;;6.93;3.40;;;;;;;;;;519350;28;1479;-86
2022/06/22 01:24:34;;;;;;;4.28;3.17;;;;;;;;;;520723;28;1463;-86
2022/06/22 01:25:05;;;;;;;6.28;3.30;;;;;;;;;;519597;28;1451;-86
2022/06/22 01:25:36;;;;;;;3.92;3.22;;;;;;;;;;521996;28;1560;-85
2022/06/22 01:25:55;;;;;;;3.67;3.30;;;;;;;;;;520955;28;1459;-85
2022/06/22 01:26:30;;;;;;;4.65;3.20;;;;;;;;;;521442;28;1545;-86
2022/06/22 01:27:22;;;;;;;4.47;3.10;;;;;;;;;;523160;28;1572;-86
2022/06/22 01:27:40;;;;;;;3.40;3.08;;;;;;;;;;523599;28;1501;-86
2022/06/22 01:27:56;;;;;;;4.03;3.20;;;;;;;;;;524452;28;1535;-87
2022/06/22 01:28:13;;;;;;;4.35;3.28;;;;;;;;;;523251;28;1489;-86
2022/06/22 01:28:29;;;;;;;4.55;3.20;;;;;;;;;;521196;28;1530;-86
2022/06/22 01:29:22;;;;;;;4.63;3.20;;;;;;;;;;519303;28;1594;-86
2022/06/22 01:29:47;;;;;;;5.07;3.38;;;;;;;;;;519466;28;1911;-86
2022/06/22 01:30:16;;;;;;;4.53;3.13;;;;;;;;;;518439;28;1467;-86
2022/06/22 01:30:37;;;;;;;3.45;3.15;;;;;;;;;;521801;28;1544;-85
2022/06/22 01:30:56;;;;;;;4.68;3.10;;;;;;;;;;521260;28;1529;-85
2022/06/22 01:31:13;;;;;;;3.85;3.00;;;;;;;;;;521381;28;1538;-86
2022/06/22 01:31:29;;;;;;;4.13;3.00;;;;;;;;;;521205;28;1689;-86
2022/06/22 01:32:02;;;;;;;4.28;3.30;;;;;;;;;;521421;28;1469;-86
2022/06/22 01:32:26;;;;;;;4.43;3.20;;;;;;;;;;520179;28;1455;-86
2022/06/22 01:32:43;;;;;;;4.38;3.28;;;;;;;;;;519754;28;1846;-86
2022/06/22 01:33:00;;;;;;;3.83;3.20;;;;;;;;;;522159;28;1427;-87
2022/06/22 01:33:37;;;;;;;4.30;3.30;;;;;;;;;;520041;28;1475;-86
2022/06/22 01:33:54;;;;;;;3.88;3.17;;;;;;;;;;521946;28;1506;-87
2022/06/22 01:34:16;;;;;;;3.88;3.00;;;;;;;;;;521716;28;1542;-86
2022/06/22 01:34:35;;;;;;;3.22;2.92;;;;;;;;;;522309;28;1458;-86
2022/06/22 01:34:55;;;;;;;3.53;3.05;;;;;;;;;;523013;28;1470;-86
2022/06/22 01:35:33;;;;;;;5.45;3.28;;;;;;;;;;524601;28;1523;-86
2022/06/22 01:35:54;;;;;;;4.32;3.35;;;;;;;;;;523633;28;1462;-85
2022/06/22 01:36:24;;;;;;;6.30;3.40;;;;;;;;;;522314;28;1771;-86
2022/06/22 01:36:39;;;;;;;6.45;3.30;;;;;;;;;;519025;28;1442;-86
2022/06/22 01:37:03;;;;;;;5.30;3.30;;;;;;;;;;518358;28;1518;-86
2022/06/22 01:37:24;;;;;;;5.70;3.25;;;;;;;;;;519513;28;1969;-85
2022/06/22 01:37:42;;;;;;;5.85;3.35;;;;;;;;;;519575;28;1530;-85
2022/06/22 01:37:58;;;;;;;5.55;3.20;;;;;;;;;;519770;28;1415;-86
2022/06/22 01:38:26;;;;;;;5.57;3.38;;;;;;;;;;521953;28;1423;-86
2022/06/22 01:38:42;;;;;;;4.78;3.42;;;;;;;;;;521449;28;1359;-86
2022/06/22 01:38:58;;;;;;;5.50;3.50;;;;;;;;;;521111;28;1533;-86
2022/06/22 01:39:14;;;;;;;5.03;3.33;;;;;;;;;;520227;28;1600;-86
2022/06/22 01:39:29;;;;;;;5.53;3.50;;;;;;;;;;520020;28;1482;-86
2022/06/22 01:39:45;;;;;;;6.43;3.50;;;;;;;;;;519411;28;1522;-87
2022/06/22 01:40:13;;;;;;;6.07;3.30;;;;;;;;;;519872;28;1459;-86
2022/06/22 01:40:54;;;;;;;4.97;3.30;;;;;;;;;;521658;28;1371;-86
2022/06/22 01:41:44;;;;;;;5.05;3.28;;;;;;;;;;519918;28;1712;-84
2022/06/22 01:42:05;;;;;;;7.18;3.40;;;;;;;;;;523408;28;919;-84
2022/06/22 01:42:56;;;;;;;5.15;3.10;;;;;;;;;;519075;28;893;-84
2022/06/22 01:43:45;;;;;;;4.82;3.15;;;;;;;;;;519035;28;1713;-84
2022/06/22 01:44:08;;;;;;;5.18;3.30;;;;;;;;;;519836;28;1519;-84
2022/06/22 01:44:50;;;;;;;5.10;3.50;;;;;;;;;;524182;28;1381;-84
2022/06/22 01:45:09;;;;;;;5.85;3.30;;;;;;;;;;522304;28;1702;-84
2022/06/22 01:45:30;;;;;;;6.90;3.60;;;;;;;;;;521626;28;1525;-84
2022/06/22 01:45:58;;;;;;;5.82;3.30;;;;;;;;;;522157;28;1513;-83
2022/06/22 01:46:32;;;;;;;6.43;3.53;;;;;;;;;;520163;28;1461;-84
2022/06/22 01:46:50;;;;;;;5.20;3.40;;;;;;;;;;520200;28;1592;-84
2022/06/22 01:47:30;;;;;;;5.18;3.30;;;;;;;;;;519906;28;1493;-84
2022/06/22 01:48:06;;;;;;;4.57;3.47;;;;;;;;;;520587;28;1404;-84
2022/06/22 01:48:43;;;;;;;5.30;3.22;;;;;;;;;;521134;28;1844;-83
2022/06/22 01:49:08;;;;;;;5.75;3.50;;;;;;;;;;521446;28;1382;-83
2022/06/22 01:49:36;;;;;;;5.30;3.42;;;;;;;;;;520150;28;1303;-83
2022/06/22 01:50:04;;;;;;;6.50;3.45;;;;;;;;;;522112;28;1137;-83
2022/06/22 01:50:42;;;;;;;5.28;3.40;;;;;;;;;;521904;28;1500;-83
2022/06/22 01:51:20;;;;;;;4.80;3.53;;;;;;;;;;521989;28;1377;-83
2022/06/22 01:51:45;;;;;;;4.60;3.22;;;;;;;;;;519857;28;934;-83
2022/06/22 01:52:31;;;;;;;6.30;3.42;;;;;;;;;;517775;28;1314;-83
2022/06/22 01:52:58;;;;;;;4.38;3.40;;;;;;;;;;520310;28;1038;-83
2022/06/22 01:53:41;;;;;;;5.03;3.40;;;;;;;;;;520750;28;1736;-83
2022/06/22 01:54:14;;;;;;;5.95;3.40;;;;;;;;;;522450;28;1472;-83
2022/06/22 01:54:55;;;;;;;4.30;3.30;;;;;;;;;;520215;28;860;-83
2022/06/22 01:55:25;;;;;;;8.10;3.40;;;;;;;;;;517358;28;1240;-83
2022/06/22 01:55:57;;;;;;;4.40;3.30;;;;;;;;;;519338;28;1512;-83
2022/06/22 01:56:29;;;;;;;5.22;3.45;;;;;;;;;;521390;28;1228;-83
2022/06/22 01:56:51;;;;;;;4.88;3.55;;;;;;;;;;521737;28;1572;-83
2022/06/22 01:57:25;;;;;;;5.40;3.40;;;;;;;;;;521332;28;1421;-83
2022/06/22 01:57:55;;;;;;;6.95;3.70;;;;;;;;;;522016;28;967;-83
2022/06/22 01:58:31;;;;;;;4.60;3.60;;;;;;;;;;519423;28;1667;-84
2022/06/22 01:58:52;;;;;;;5.20;3.50;;;;;;;;;;520127;28;927;-83
2022/06/22 01:59:18;;;;;;;4.90;3.45;;;;;;;;;;520549;28;1852;-83
2022/06/22 01:59:56;;;;;;;4.35;3.60;;;;;;;;;;519783;28;1511;-83
2022/06/22 02:00:16;;;;;;;6.00;3.63;;;;;;;;;;518253;28;1443;-83
2022/06/22 02:00:31;;;;;;;5.50;3.55;;;;;;;;;;519688;28;1536;-83
2022/06/22 02:00:55;;;;;;;5.57;3.67;;;;;;;;;;520208;28;1262;-84
2022/06/22 02:01:38;;;;;;;6.13;3.70;;;;;;;;;;520049;28;1514;-83
2022/06/22 02:02:21;;;;;;;4.85;3.50;;;;;;;;;;522212;28;1347;-83
2022/06/22 02:02:44;;;;;;;4.45;3.70;;;;;;;;;;522155;28;1516;-83
2022/06/22 02:03:13;;;;;;;5.80;3.60;;;;;;;;;;522101;28;1673;-83
2022/06/22 02:03:28;;;;;;;4.78;3.50;;;;;;;;;;519027;28;1522;-83
2022/06/22 02:04:07;;;;;;;4.37;3.40;;;;;;;;;;521147;28;1171;-84
2022/06/22 02:04:31;;;;;;;5.22;3.50;;;;;;;;;;521311;28;1513;-84
2022/06/22 02:05:05;;;;;;;5.88;3.60;;;;;;;;;;520328;28;1632;-84
2022/06/22 02:05:32;;;;;;;3.90;3.40;;;;;;;;;;520448;28;1514;-83
2022/06/22 02:05:55;;;;;;;4.68;3.60;;;;;;;;;;520004;28;1474;-84
2022/06/22 02:07:52;;;;;;;5.40;3.58;;;;;;;;;;524203;28;693;-84
2022/06/22 02:08:18;;;;;;;6.22;3.72;;;;;;;;;;523355;28;1392;-84
2022/06/22 02:08:39;;;;;;;4.90;3.72;;;;;;;;;;524451;28;1735;-84
2022/06/22 02:09:04;;;;;;;5.57;3.70;;;;;;;;;;522320;28;1454;-84
2022/06/22 02:09:27;;;;;;;6.50;3.78;;;;;;;;;;521920;28;1621;-84
2022/06/22 02:10:11;;;;;;;7.95;3.88;;;;;;;;;;523171;28;1477;-84
2022/06/22 02:10:47;;;;;;;4.85;3.80;;;;;;;;;;515761;28;1755;-84
2022/06/22 02:11:15;;;;;;;5.13;3.75;;;;;;;;;;522093;28;1512;-84
2022/06/22 02:11:36;;;;;;;6.00;3.75;;;;;;;;;;524130;28;990;-83
2022/06/22 02:12:18;;;;;;;5.03;3.53;;;;;;;;;;522281;28;1334;-84
2022/06/22 02:12:36;;;;;;;5.35;3.70;;;;;;;;;;522397;28;1140;-84
2022/06/22 02:12:55;;;;;;;5.07;3.70;;;;;;;;;;524220;28;1421;-84
2022/06/22 02:13:34;;;;;;;4.25;3.40;;;;;;;;;;525919;28;1575;-83
2022/06/22 02:13:58;;;;;;;3.92;3.42;;;;;;;;;;525143;28;1097;-84
2022/06/22 02:14:18;;;;;;;4.28;3.30;;;;;;;;;;525327;28;1599;-84
2022/06/22 02:14:34;;;;;;;5.05;3.40;;;;;;;;;;524343;28;1331;-84
2022/06/22 02:15:00;;;;;;;4.70;3.40;;;;;;;;;;524451;28;1512;-84
2022/06/22 02:15:23;;;;;;;5.03;3.40;;;;;;;;;;524271;28;871;-84
2022/06/22 02:15:38;;;;;;;5.18;3.50;;;;;;;;;;521878;28;1580;-84
2022/06/22 02:16:15;;;;;;;4.53;3.50;;;;;;;;;;520765;28;1557;-84
2022/06/22 02:16:43;;;;;;;5.07;3.50;;;;;;;;;;523309;28;1489;-84
2022/06/22 02:17:01;;;;;;;4.82;3.55;;;;;;;;;;519848;28;1465;-84
2022/06/22 02:17:22;;;;;;;5.07;3.55;;;;;;;;;;520209;28;801;-84
2022/06/22 02:17:39;;;;;;;4.63;3.60;;;;;;;;;;520153;28;1569;-84
2022/06/22 02:17:57;;;;;;;5.22;3.42;;;;;;;;;;522157;28;1474;-84
2022/06/22 02:18:22;;;;;;;5.65;3.28;;;;;;;;;;522151;28;1651;-84
2022/06/22 02:18:56;;;;;;;4.18;3.40;;;;;;;;;;522241;28;1635;-84
2022/06/22 02:19:15;;;;;;;4.72;3.50;;;;;;;;;;518231;28;1383;-84
2022/06/22 02:19:30;;;;;;;5.05;3.33;;;;;;;;;;518993;28;1342;-84
2022/06/22 02:20:18;;;;;;;5.00;3.30;;;;;;;;;;522745;28;1592;-84
2022/06/22 02:20:36;;;;;;;5.53;3.50;;;;;;;;;;523101;28;1568;-84
2022/06/22 02:20:52;;;;;;;5.57;3.45;;;;;;;;;;522231;28;1644;-84
2022/06/22 02:21:44;;;;;;;4.03;3.30;;;;;;;;;;523531;28;1438;-84
2022/06/22 02:22:01;;;;;;;5.38;3.40;;;;;;;;;;515875;28;931;-84
2022/06/22 02:22:16;;;;;;;4.72;3.40;;;;;;;;;;522303;28;1469;-84
2022/06/22 02:22:31;;;;;;;4.60;3.50;;;;;;;;;;522126;28;1378;-84
2022/06/22 02:22:49;;;;;;;4.37;3.43;;;;;;;;;;521249;28;1631;-84
2022/06/22 02:23:21;;;;;;;4.20;3.53;;;;;;;;;;522088;28;1839;-84
2022/06/22 02:23:37;;;;;;;3.88;3.50;;;;;;;;;;520748;28;1533;-84
2022/06/22 02:24:02;;;;;;;4.50;3.40;;;;;;;;;;520219;28;1614;-84
2022/06/22 02:24:26;;;;;;;4.22;3.70;;;;;;;;;;520114;28;1580;-84
2022/06/22 02:24:48;;;;;;;4.57;3.70;;;;;;;;;;522181;28;1289;-84
2022/06/22 02:25:03;;;;;;;5.82;3.70;;;;;;;;;;522099;28;1133;-84
2022/06/22 02:25:20;;;;;;;5.70;3.63;;;;;;;;;;522041;28;1182;-84
2022/06/22 02:25:41;;;;;;;5.10;3.50;;;;;;;;;;523837;28;939;-84
2022/06/22 02:26:20;;;;;;;4.30;3.40;;;;;;;;;;523874;28;1583;-84
2022/06/22 02:26:48;;;;;;;4.32;3.63;;;;;;;;;;524078;28;1800;-84
2022/06/22 02:27:08;;;;;;;5.03;3.45;;;;;;;;;;524205;28;1611;-85
2022/06/22 02:27:25;;;;;;;5.20;3.60;;;;;;;;;;524348;28;1074;-85
2022/06/22 02:27:41;;;;;;;4.20;3.70;;;;;;;;;;522164;28;1607;-84
2022/06/22 02:27:56;;;;;;;5.53;3.70;;;;;;;;;;521963;28;1370;-84
2022/06/22 02:28:12;;;;;;;6.40;3.70;;;;;;;;;;520033;28;1608;-84
2022/06/22 02:28:27;;;;;;;5.63;3.80;;;;;;;;;;520773;28;1521;-84
2022/06/22 02:28:43;;;;;;;6.00;4.00;;;;;;;;;;522492;28;1649;-84
2022/06/22 02:29:00;;;;;;;6.78;3.97;;;;;;;;;;520034;28;1538;-84
2022/06/22 02:29:19;;;;;;;6.45;3.95;;;;;;;;;;520766;28;1501;-84
2022/06/22 02:29:39;;;;;;;8.05;4.00;;;;;;;;;;521327;28;991;-84
2022/06/22 02:29:58;;;;;;;6.55;3.95;;;;;;;;;;519680;28;901;-83
2022/06/22 02:30:13;;;;;;;6.13;4.20;;;;;;;;;;524088;28;1352;-84
2022/06/22 02:30:29;;;;;;;6.78;4.20;;;;;;;;;;524191;28;1410;-84
2022/06/22 02:30:45;;;;;;;6.47;4.15;;;;;;;;;;524257;28;1257;-84
2022/06/22 02:31:01;;;;;;;5.03;3.90;;;;;;;;;;522924;28;1567;-84
2022/06/22 02:31:20;;;;;;;5.93;3.90;;;;;;;;;;522480;28;947;-84
2022/06/22 02:31:36;;;;;;;6.07;3.90;;;;;;;;;;522381;28;853;-84
2022/06/22 02:31:55;;;;;;;4.43;3.80;;;;;;;;;;522372;28;1369;-84
2022/06/22 02:32:21;;;;;;;4.78;3.90;;;;;;;;;;523734;28;1375;-84
2022/06/22 02:32:41;;;;;;;4.43;3.90;;;;;;;;;;522933;28;1588;-84
2022/06/22 02:32:57;;;;;;;4.30;3.90;;;;;;;;;;523457;28;1654;-84
2022/06/22 02:33:12;;;;;;;4.80;3.87;;;;;;;;;;521962;28;1595;-84
2022/06/22 02:33:30;;;;;;;5.45;3.70;;;;;;;;;;522157;28;1289;-84
2022/06/22 02:33:49;;;;;;;4.55;3.50;;;;;;;;;;519971;28;1453;-84
2022/06/22 02:34:05;;;;;;;4.63;3.53;;;;;;;;;;517850;28;1370;-84
2022/06/22 02:34:23;;;;;;;5.53;3.85;;;;;;;;;;517956;28;1411;-84
2022/06/22 02:34:41;;;;;;;5.95;3.85;;;;;;;;;;517873;28;1224;-84
2022/06/22 02:34:58;;;;;;;6.20;3.72;;;;;;;;;;519877;28;1247;-84
2022/06/22 02:35:15;;;;;;;4.80;3.80;;;;;;;;;;520259;28;920;-84
2022/06/22 02:35:30;;;;;;;5.03;3.92;;;;;;;;;;520173;28;1486;-84
2022/06/22 02:35:46;;;;;;;6.70;3.90;;;;;;;;;;520153;28;1521;-84
2022/06/22 02:36:04;;;;;;;7.50;3.95;;;;;;;;;;518145;28;1510;-84
2022/06/22 02:36:23;;;;;;;6.82;4.13;;;;;;;;;;518052;28;1287;-84
2022/06/22 02:36:44;;;;;;;6.30;4.15;;;;;;;;;;519293;28;1426;-84
2022/06/22 02:37:03;;;;;;;6.40;4.10;;;;;;;;;;522610;28;1405;-84
2022/06/22 02:37:20;;;;;;;7.65;4.03;;;;;;;;;;521318;28;1588;-84
2022/06/22 02:37:46;;;;;;;8.40;4.38;;;;;;;;;;520265;28;1408;-84
2022/06/22 02:38:05;;;;;;;6.28;4.20;;;;;;;;;;521742;28;1409;-84
2022/06/22 02:38:21;;;;;;;8.52;4.43;;;;;;;;;;520492;28;1533;-84